Current Weather

Batten Intl

Racine, Wisconsin (KRAC)

Report from: Friday, February 3, 2023 10:53 PM CST
Current time: Friday, February 3, 2023 11:22 PM CST

Nearby weather
Weather history
Weather forecast

Temperature-12.8°C (9.0°F)
Wind chill-19.0°C (-2.2°F)
Dew point-21.1°C (-6.0°F)
Winds 6 kts (3.1 m/s, 6.9 mph) Southwest (220°)
Visibility10 mi. (16.1 km)
Clouds Ceiling: Overcast 6,500 ft. (1,981 m)
Altimeter30.46 in.Hg (1031 mB)
Relative humidity50 %
Density altitude-4,101 ft. (-1,250 m)
Sea-level pressure103.3 kPa (1033 mB, 30.51 in.Hg)
Remarks Fully automated report
Automated weather observing station with precipitation discriminator
Flight conditions Visual Meteorological Conditions
Raw dataKRAC 040453Z AUTO 22006KT 10SM OVC065 M13/M21 A3046 RMK AO2 SLP331 T11281211
An unhandled exception has occurred. See browser dev tools for details. Reload 🗙